Skip Navigation Links
NOAA logo - Click to go to the NOAA homepage
NOAA's National Weather Service
Alaska Aviation Weather Unit
  NWS logo - Click to go to the NWS homepage
Left Navbar Graphic     08 AKDT = 16 GMT

   
NOAA is celebrating 200 years of science, service, and stewardship. Visit the NOAA 200th celebration Web site to learn more.
USA.gov is the U.S. Government's official Web portal to all Federal, state and local government Web resources and services.
Facebook
NWS on Facebook

Important Change Regarding the AAWU Web Presence

 

Over the last several months, the AAWU has been working to navigate its webpages to a nationally supported server. Security, as well as other needs, have necessitated the change.  In the process, we have made an effort to enhance the functionality of our website, as well as some of our products. As of June 20, 2017, aawu.arh.noaa.gov will be discontinued. The new AAWU web address is weather.gov/aawu. It is now live and will run in-parallel with the old site until it is discontinued. Please send any feedback or questions regarding the new webpages to nws.ar.aawu.webauthors@noaa.gov.  Thank you for your patience during this time of transition.
AAWU Home :: Display TAF Add Bookmark
TAF CYSM 231143Z 2312/2324 VRB03KT P6SM BKN090 TEMPO 2312/2322 P6SM
     -SHRA OVC060
     BECMG 2317/2319 30008KT
    FM232200 VRB03KT P6SM SCT080 PROB30 2322/2324 6SM TSRA BKN080CB
    RMK NXT FCST BY 231800Z=

METAR CYSM 231000Z 33004KT 15SM -SHRA BKN090 OVC150 16/08 A2962 RMK AC7AC1 CVCTV CLD EMBD SLP034 DENSITY ALT 1300FT= SPECI CYSM 231018Z 35006KT 15SM VCSH FEW070 BKN100 OVC150 16/07 A2961 RMK AC1AC6AC1 CVCTV CLD EMBD SLP031 DENSITY ALT 1300FT= METAR CYSM 231100Z 00000KT 15SM FEW070 SCT100 BKN150 BKN240 15/08 A2959 RMK AC1AC3AC2CI1 SLP026 DENSITY ALT 1200FT= METAR CYSM 231200Z VRB04KT 15SM SCT095 BKN130 BKN240 15/08 A2958 RMK ACC4AC3CI1 CI TR SH N, S SLP022 DENSITY ALT 1100FT= METAR CYSM 231300Z 16004KT 15SM VCSH BKN090 OVC130 14/08 A2957 RMK AC5AC3 ACC EMBD SLP018 DENSITY ALT 1100FT= SPECI CYSM 231325Z 20004KT 140V220 15SM -SHRA BKN090 OVC130 15/08 A2957 RMK AC6AC2 ACC EMBD SLP018 DENSITY ALT 1100FT= METAR CYSM 231400Z 17004KT 15SM -SHRA BKN080 OVC130 14/10 A2956 RMK AC7AC1 ACC EMBD SLP014 DENSITY ALT 1000FT= METAR CYSM 231500Z 19006KT 120V240 15SM -SHRA OVC070 13/10 A2957 RMK AC8 ACC EMBD SLP021 DENSITY ALT 900FT= SPECI CYSM 231525Z 13005KT 12SM -RA OVC070 13/11 A2957 RMK AS8 AC ASOCTD SLP019 DENSITY ALT 900FT= METAR CYSM 231600Z 14005KT 15SM -RA OVC080 13/11 A2956 RMK AS8 AC ASOCTD SLP016 DENSITY ALT 1000FT=
 Alaska TAF Map

NOAA's National Weather Service
Alaska Aviation Weather Unit
6930 Sand Lake Road
Anchorage, AK 99502-1845
Disclaimer
Credits
Glossary
Privacy Policy
About Us
Career Opportunities
Contact AAWU Internet Services Site last modified: April, 17th 2012